Taurus — 2CPB4 — position and weather

sailwx.info

Track history (hours):
 
Tides and Currents Weather Stations Pressure Air Temp Water Temp Dewpoint Dewpoint Depression Visibility Wind Speed Wind Dir Waves Ship Positions

Taurus

Last reported at 2014-Sep-08 17:24 UTC. Time now 2014-Sep-19 03:48 UTC.
Position N 01°10' E 103°48'.
Warning: this ship's position is 10 days out of date.

Length 292 m; draft 8.8 m.

Type: Cargo ship. MMSI: 235074621.

Date/timePositionNaut miles runAvg speedWind from/ knotsBaromVisibWave heightAir tempDewpointWater temp
2014-Sep-08 17:24N 01°10' E 103°48'7 8.4
2014-Sep-08 16:33N 01°14' E 103°55'10 9.6
2014-Sep-08 15:32N 01°16' E 104°04'8 8.2
2014-Sep-08 14:31N 01°17' E 104°12'1 0.1
2014-Sep-08 00:26N 01°16' E 104°12'7 3.2
2014-Sep-07 22:21N 01°19' E 104°05'0 0.0
2014-Sep-07 21:12N 01°19' E 104°05'0 0.0
2014-Sep-07 20:33N 01°19' E 104°05'0 0.0
2014-Sep-07 19:17N 01°19' E 104°05'0 0.1
2014-Sep-07 18:29N 01°18' E 104°05'0 0.0
2014-Sep-07 16:24N 01°18' E 104°05'0 0.1
2014-Sep-07 15:23N 01°18' E 104°05'0 0.2
2014-Sep-07 14:24N 01°18' E 104°05'0 0.1
2014-Sep-07 13:12N 01°18' E 104°05'0 0.0
2014-Sep-07 12:29N 01°18' E 104°05'0 0.0
2014-Sep-07 11:26N 01°18' E 104°05'0 0.0
2014-Sep-07 09:18N 01°18' E 104°05'0 0.0
2014-Sep-07 08:29N 01°18' E 104°05'0 0.1
2014-Sep-07 07:12N 01°18' E 104°05'0 0.0
2014-Sep-07 06:15N 01°18' E 104°05'0 0.0
2014-Sep-07 04:18N 01°18' E 104°05'0 0.0
2014-Sep-07 01:32N 01°18' E 104°05'0 0.1
2014-Sep-07 00:30N 01°18' E 104°05'0 0.3
2014-Sep-06 23:32N 01°18' E 104°05'3 3.1
2014-Sep-06 22:33N 01°17' E 104°07'  
Track history (hours):
 
Tides and Currents Weather Stations Pressure Air Temp Water Temp Dewpoint Dewpoint Depression Visibility Wind Speed Wind Dir Waves Ship Positions

Taurus

Last reported at 2014-Sep-08 17:24 UTC. Time now 2014-Sep-19 03:48 UTC.
Position N 01°10' E 103°48'.
Warning: this ship's position is 10 days out of date.

Length 292 m; draft 8.8 m.

Type: Cargo ship. MMSI: 235074621.

Date/timePositionNaut miles runAvg speedWind from/ knotsBaromVisibWave heightAir tempDewpointWater temp
2014-Sep-08 17:24N 01°10' E 103°48'7 8.4
2014-Sep-08 16:33N 01°14' E 103°55'10 9.6
2014-Sep-08 15:32N 01°16' E 104°04'8 8.2
2014-Sep-08 14:31N 01°17' E 104°12'1 0.1
2014-Sep-08 00:26N 01°16' E 104°12'7 3.2
2014-Sep-07 22:21N 01°19' E 104°05'0 0.0
2014-Sep-07 21:12N 01°19' E 104°05'0 0.0
2014-Sep-07 20:33N 01°19' E 104°05'0 0.0
2014-Sep-07 19:17N 01°19' E 104°05'0 0.1
2014-Sep-07 18:29N 01°18' E 104°05'0 0.0
2014-Sep-07 16:24N 01°18' E 104°05'0 0.1
2014-Sep-07 15:23N 01°18' E 104°05'0 0.2
2014-Sep-07 14:24N 01°18' E 104°05'0 0.1
2014-Sep-07 13:12N 01°18' E 104°05'0 0.0
2014-Sep-07 12:29N 01°18' E 104°05'0 0.0
2014-Sep-07 11:26N 01°18' E 104°05'0 0.0
2014-Sep-07 09:18N 01°18' E 104°05'0 0.0
2014-Sep-07 08:29N 01°18' E 104°05'0 0.1
2014-Sep-07 07:12N 01°18' E 104°05'0 0.0
2014-Sep-07 06:15N 01°18' E 104°05'0 0.0
2014-Sep-07 04:18N 01°18' E 104°05'0 0.0
2014-Sep-07 01:32N 01°18' E 104°05'0 0.1
2014-Sep-07 00:30N 01°18' E 104°05'0 0.3
2014-Sep-06 23:32N 01°18' E 104°05'3 3.1
2014-Sep-06 22:33N 01°17' E 104°07'  

Dump ship's entire track history